This is the latest recevied weather packets stored in our database for station/object KD9JJA. If no packets are shown the sender has not sent any weather packets the latest 10 day(s).
| Time | Temp. | Humidity | Pressure | Rain* | Wind** | Luminosity | Snow |
|---|---|---|---|---|---|---|---|
| 1777740476 | 11.67° C | 62% | 1020.8 hPa | 0 mm | - | 110 W/m² | - |
| 1777740174 | 11.11° C | 62% | 1020.5 hPa | 0 mm | - | 89 W/m² | - |
| 1777739869 | 11.11° C | 61% | 1020.7 hPa | 0 mm | - | 380 W/m² | - |
| 1777739566 | 10° C | 69% | 1020.6 hPa | 0 mm | - | 189 W/m² | - |
| 1777739263 | 10° C | 65% | 1020.7 hPa | 0 mm | - | 72 W/m² | - |
| 1777738960 | 10° C | 68% | 1020.7 hPa | 0 mm | - | 80 W/m² | - |
| 1777738657 | 10° C | 68% | 1020.7 hPa | 0 mm | - | 69 W/m² | - |
| 1777738353 | 10° C | 67% | 1020.7 hPa | 0 mm | - | 319 W/m² | - |
| 1777738052 | 10° C | 67% | 1020.9 hPa | 0 mm | - | 270 W/m² | - |
| 1777737745 | 10.56° C | 67% | 1021 hPa | 0 mm | - | 261 W/m² | - |
| 1777737443 | 10.56° C | 64% | 1021 hPa | 0 mm | - | 176 W/m² | - |
| 1777737135 | 10° C | 68% | 1020.8 hPa | 0 mm | - | 239 W/m² | - |
| 1777736830 | 10.56° C | 70% | 1021 hPa | 0 mm | - | 409 W/m² | - |
| 1777736211 | 10° C | 69% | 1021 hPa | 0 mm | - | 124 W/m² | - |
| 1777735908 | 9.44° C | 67% | 1021 hPa | 0 mm | - | 78 W/m² | - |
| 1777735606 | 8.89° C | 66% | 1021.1 hPa | 0 mm | - | 79 W/m² | - |
| 1777735303 | 8.89° C | 66% | 1021 hPa | 0 mm | - | 88 W/m² | - |
| 1777735000 | 9.44° C | 69% | 1021.3 hPa | 0 mm | - | 285 W/m² | - |
| 1777734697 | 8.89° C | 70% | 1021.1 hPa | 0 mm | - | 361 W/m² | - |
| 1777734395 | 9.44° C | 72% | 1020.9 hPa | 0 mm | - | 209 W/m² | - |
| 1777734091 | 9.44° C | 70% | 1021 hPa | 0 mm | - | 88 W/m² | - |
| 1777733787 | 9.44° C | 75% | 1021 hPa | 0 mm | - | 78 W/m² | - |
| 1777733484 | 8.89° C | 78% | 1021 hPa | 0 mm | - | 86 W/m² | - |
| 1777733180 | 8.89° C | 79% | 1021.3 hPa | 0 mm | - | 86 W/m² | - |
| 1777732877 | 8.33° C | 79% | 1021 hPa | 0 mm | - | 153 W/m² | - |
* Rain latest hour (hover to see other rain measurements)
** Current wind speed in m/s (hover to see current wind gust speed)